Aviation Digital Data Service (ADDS)

Output produced by TAFs form (2349 UTC 18 July 2018)
found at http://www.aviationweather.gov/adds/tafs/
 
RJGG 182330Z 10003KT 020V150 8000 FEW020 30/25 Q1011 NOSIG
TAF RJGG 182309Z 1900/2006 14004KT 7000 FEW015 
     BECMG 1905/1907 16014KT